createdAt,value
2023-01-12T06:17:02.433Z,23.80
2023-01-12T06:19:29.798Z,23.20
2023-01-12T06:21:59.651Z,22.60
2023-01-12T06:24:28.420Z,22.67
2023-01-12T06:26:56.002Z,22.47
2023-01-12T06:29:23.334Z,23.57
2023-01-12T06:31:50.671Z,22.93
2023-01-12T06:34:18.040Z,24.33
2023-01-12T06:36:45.498Z,24.17
2023-01-12T06:39:13.163Z,23.47
2023-01-12T06:41:59.127Z,23.50
2023-01-12T06:44:26.531Z,24.37
2023-01-12T06:46:53.995Z,24.33
2023-01-12T06:49:21.325Z,25.40
2023-01-12T06:51:51.422Z,25.30
2023-01-12T06:54:19.127Z,24.00
2023-01-12T06:56:46.692Z,25.87
2023-01-12T06:59:14.146Z,24.30
2023-01-12T07:01:41.931Z,23.57
2023-01-12T07:04:09.381Z,24.07
2023-01-12T07:06:36.687Z,23.60
2023-01-12T07:09:04.449Z,24.93
2023-01-12T07:11:31.750Z,23.77
2023-01-12T07:14:02.308Z,24.30
2023-01-12T07:16:29.796Z,24.27
2023-01-12T07:18:58.274Z,24.43
2023-01-12T07:21:25.626Z,24.60
2023-01-12T07:23:52.964Z,24.87
2023-01-12T07:26:20.416Z,24.13
2023-01-12T07:28:47.749Z,23.53
2023-01-12T07:31:15.149Z,23.87
2023-01-12T07:33:42.546Z,24.33
2023-01-12T07:36:09.991Z,23.77
2023-01-12T07:38:38.268Z,24.20
2023-01-12T07:41:06.028Z,23.10
2023-01-12T07:43:33.931Z,24.17
2023-01-12T07:46:01.323Z,23.43
2023-01-12T07:48:29.036Z,24.33
2023-01-12T07:50:59.509Z,23.80
2023-01-12T07:53:27.978Z,23.40
2023-01-12T07:55:55.332Z,24.13
2023-01-12T07:58:22.648Z,24.90
2023-01-12T08:00:50.037Z,23.60
2023-01-12T08:03:17.504Z,23.73
2023-01-12T08:05:44.918Z,23.97
2023-01-12T08:08:12.280Z,23.07
2023-01-12T08:10:41.017Z,23.70
2023-01-12T08:13:08.329Z,22.33
2023-01-12T08:15:41.125Z,23.50
2023-01-12T08:18:14.469Z,22.70
2023-01-12T08:20:42.080Z,23.10
2023-01-12T08:23:11.886Z,23.40
2023-01-12T08:25:44.706Z,23.37
2023-01-12T08:28:18.389Z,23.27
2023-01-12T08:30:46.891Z,22.83
2023-01-12T08:33:14.879Z,22.13
2023-01-12T08:35:42.333Z,23.27
2023-01-12T08:38:10.454Z,23.40
2023-01-12T08:40:56.568Z,22.57
2023-01-12T08:43:42.572Z,21.87
2023-01-12T08:46:10.007Z,22.13
2023-01-12T08:48:37.960Z,21.33
2023-01-12T08:51:06.488Z,21.63
2023-01-12T08:53:33.803Z,22.00
2023-01-12T08:56:01.135Z,21.60
2023-01-12T08:58:28.701Z,22.53
2023-01-12T09:00:56.405Z,22.00
2023-01-12T09:03:24.073Z,21.00
2023-01-12T09:05:51.399Z,21.30
2023-01-12T09:08:18.735Z,21.50
2023-01-12T09:10:46.050Z,20.17
2023-01-12T09:13:15.883Z,20.63
2023-01-12T09:15:52.022Z,21.07
2023-01-12T09:18:23.989Z,19.23
2023-01-12T09:20:51.402Z,21.17
2023-01-12T09:23:18.812Z,19.70
2023-01-12T09:25:46.184Z,19.53
2023-01-12T09:28:13.598Z,19.77
2023-01-12T09:30:41.104Z,18.07
2023-01-12T09:33:08.521Z,19.43
2023-01-12T09:35:35.897Z,18.13
2023-01-12T09:38:03.250Z,17.67
2023-01-12T09:40:30.647Z,16.80
2023-01-12T09:43:16.627Z,17.33
2023-01-12T09:46:03.158Z,17.00
2023-01-12T09:48:31.317Z,15.97
2023-01-12T09:51:09.762Z,16.63
2023-01-12T09:53:38.722Z,16.73
2023-01-12T09:56:09.133Z,17.07
2023-01-12T09:58:54.955Z,15.97
2023-01-12T10:01:29.346Z,15.70
2023-01-12T10:03:58.697Z,15.07
2023-01-12T10:06:26.186Z,14.33
2023-01-12T10:08:53.493Z,14.67
2023-01-12T10:11:24.629Z,15.00
2023-01-12T10:14:01.159Z,14.00
2023-01-12T10:16:37.134Z,13.33
2023-01-12T10:19:12.226Z,13.87
2023-01-12T10:21:41.010Z,14.37
2023-01-12T10:24:12.908Z,13.57
2023-01-12T10:26:44.117Z,12.73
2023-01-12T10:29:12.455Z,12.73
2023-01-12T10:31:39.910Z,12.57
2023-01-12T10:34:08.625Z,13.83
2023-01-12T10:36:37.015Z,12.60
2023-01-12T10:39:06.919Z,13.30
2023-01-12T10:41:35.605Z,13.30
2023-01-12T10:44:17.195Z,13.93
2023-01-12T10:46:44.675Z,13.33
2023-01-12T10:49:18.229Z,13.53
2023-01-12T10:52:08.108Z,14.97
2023-01-12T10:54:37.395Z,13.30
2023-01-12T10:57:07.786Z,12.97
2023-01-12T10:59:36.422Z,13.27
2023-01-12T11:02:11.612Z,13.03
2023-01-12T11:04:40.744Z,12.80
2023-01-12T11:07:26.535Z,12.80
2023-01-12T11:09:55.089Z,12.90
2023-01-12T11:12:31.614Z,12.03
2023-01-12T11:14:58.989Z,11.73
2023-01-12T11:17:50.078Z,12.37
2023-01-12T11:20:17.818Z,10.93
2023-01-12T11:22:46.034Z,12.90
2023-01-12T11:25:15.698Z,11.73
2023-01-12T11:27:45.862Z,11.87
2023-01-12T11:30:35.603Z,11.60
2023-01-12T11:33:08.941Z,11.27
2023-01-12T11:35:50.100Z,11.17
2023-01-12T11:38:27.308Z,11.07
2023-01-12T11:40:56.920Z,11.53
2023-01-12T11:43:56.033Z,11.57
2023-01-12T11:46:26.827Z,12.40
2023-01-12T11:48:54.346Z,10.77
2023-01-12T11:51:21.687Z,11.43
2023-01-12T11:53:49.058Z,11.57
2023-01-12T11:56:35.355Z,10.73
2023-01-12T11:59:02.669Z,11.10
2023-01-12T12:01:39.202Z,11.67
2023-01-12T12:04:26.852Z,11.13
2023-01-12T12:06:56.275Z,10.90
2023-01-12T12:09:29.595Z,10.90
2023-01-12T12:12:01.312Z,11.10
2023-01-12T12:14:38.724Z,10.10
2023-01-12T12:17:15.038Z,10.67
2023-01-12T12:19:45.624Z,10.10
2023-01-12T12:22:21.648Z,10.67
2023-01-12T12:25:08.657Z,10.43
2023-01-12T12:27:36.187Z,9.93
2023-01-12T12:30:18.828Z,10.80
2023-01-12T12:33:02.108Z,12.60
2023-01-12T12:35:36.223Z,9.73
2023-01-12T12:38:09.443Z,9.40
2023-01-12T12:41:01.109Z,10.03
2023-01-12T12:43:51.191Z,9.50
2023-01-12T12:46:22.116Z,10.80
2023-01-12T12:48:55.767Z,10.37
2023-01-12T12:51:26.014Z,10.40
2023-01-12T12:53:54.726Z,10.50
2023-01-12T12:56:24.479Z,10.20
2023-01-12T12:58:54.190Z,10.73
2023-01-12T13:01:25.403Z,10.43
2023-01-12T13:04:02.939Z,11.10
2023-01-12T13:06:50.101Z,10.60
2023-01-12T13:09:17.434Z,9.93
2023-01-12T13:11:54.039Z,11.20
2023-01-12T13:14:25.752Z,10.67
2023-01-12T13:16:54.974Z,10.20
2023-01-12T13:19:37.655Z,11.40
2023-01-12T13:22:24.165Z,10.53
2023-01-12T13:24:52.982Z,10.03
2023-01-12T13:27:39.012Z,10.53
2023-01-12T13:30:35.572Z,10.83
2023-01-12T13:33:34.634Z,10.57
2023-01-12T13:36:02.130Z,9.80
2023-01-12T13:38:43.968Z,10.07
2023-01-12T13:41:12.019Z,10.53
2023-01-12T13:43:41.051Z,9.60
2023-01-12T13:46:18.849Z,9.50
2023-01-12T13:48:54.000Z,9.50
2023-01-12T13:51:33.644Z,9.73
2023-01-12T13:54:21.245Z,9.37
2023-01-12T13:56:56.216Z,9.57
2023-01-12T13:59:24.996Z,9.10
2023-01-12T14:01:53.055Z,8.43
2023-01-12T14:04:29.972Z,9.87
2023-01-12T14:07:16.034Z,9.23
2023-01-12T14:09:59.185Z,9.53
2023-01-12T14:12:26.573Z,8.23
2023-01-12T14:15:15.471Z,8.90
2023-01-12T14:17:49.773Z,7.90
2023-01-12T14:20:18.335Z,8.33
2023-01-12T14:22:46.171Z,7.90
2023-01-12T14:25:21.317Z,7.80
2023-01-12T14:27:50.158Z,7.80
2023-01-12T14:30:17.620Z,7.90
2023-01-12T14:32:46.246Z,8.37
2023-01-12T14:35:17.935Z,8.70
2023-01-12T14:37:49.136Z,8.80
2023-01-12T14:40:20.697Z,8.53
2023-01-12T14:43:06.869Z,8.43
2023-01-12T14:45:52.967Z,8.07
2023-01-12T14:48:28.285Z,7.83
2023-01-12T14:51:21.809Z,7.93
2023-01-12T14:53:56.085Z,7.80
2023-01-12T14:56:28.092Z,8.80
2023-01-12T14:58:55.633Z,8.13
2023-01-12T15:01:37.065Z,8.03
2023-01-12T15:04:08.907Z,9.23
2023-01-12T15:06:39.674Z,7.90
2023-01-12T15:09:11.041Z,8.00
2023-01-12T15:11:39.117Z,7.53
2023-01-12T15:14:07.277Z,7.83
2023-01-12T15:16:53.235Z,7.50
2023-01-12T15:19:39.361Z,8.30
2023-01-12T15:22:27.964Z,9.17
2023-01-12T15:25:15.098Z,8.23
2023-01-12T15:27:42.506Z,8.87
2023-01-12T15:30:11.452Z,8.70
2023-01-12T15:32:48.833Z,8.43
2023-01-12T15:35:24.165Z,8.67
2023-01-12T15:37:52.155Z,8.60
2023-01-12T15:40:19.625Z,8.47
2023-01-12T15:42:47.605Z,9.27
2023-01-12T15:45:27.508Z,9.17
2023-01-12T15:47:55.316Z,8.97
2023-01-12T15:50:22.743Z,9.37
2023-01-12T15:52:51.232Z,9.10
2023-01-12T15:55:19.967Z,9.27
2023-01-12T15:57:47.623Z,9.07
2023-01-12T16:00:16.114Z,10.10
2023-01-12T16:02:45.585Z,10.30
2023-01-12T16:05:13.529Z,9.90
2023-01-12T16:07:41.318Z,10.23
2023-01-12T16:10:09.699Z,11.77
2023-01-12T16:12:39.773Z,11.07
2023-01-12T16:15:07.865Z,12.30
2023-01-12T16:17:35.657Z,13.43
2023-01-12T16:20:03.044Z,12.37
2023-01-12T16:22:31.131Z,12.47
2023-01-12T16:24:58.133Z,12.90
2023-01-12T16:27:26.860Z,13.93
2023-01-12T16:29:54.345Z,13.40
2023-01-12T16:32:25.564Z,13.83
2023-01-12T16:34:53.312Z,13.33
2023-01-12T16:37:23.111Z,13.30
2023-01-12T16:39:50.513Z,13.70
2023-01-12T16:42:17.847Z,14.60
2023-01-12T16:44:45.155Z,13.97
2023-01-12T16:47:13.859Z,15.07
2023-01-12T16:49:41.344Z,15.17
2023-01-12T16:52:10.825Z,15.90
2023-01-12T16:54:42.487Z,16.00
2023-01-12T16:57:10.768Z,16.43
2023-01-12T16:59:38.208Z,16.07
2023-01-12T17:02:08.186Z,16.90
2023-01-12T17:04:37.638Z,16.00
2023-01-12T17:07:06.132Z,16.67
2023-01-12T17:09:36.857Z,18.00
2023-01-12T17:12:04.433Z,17.90
2023-01-12T17:14:34.724Z,18.33
2023-01-12T17:17:07.361Z,17.90
2023-01-12T17:19:36.118Z,18.20
2023-01-12T17:22:06.784Z,18.17
2023-01-12T17:24:35.109Z,18.57
2023-01-12T17:27:02.614Z,19.93
2023-01-12T17:29:30.163Z,25.10
2023-01-12T17:32:04.012Z,21.83
2023-01-12T17:34:35.188Z,19.23
2023-01-12T17:37:04.234Z,18.37
2023-01-12T17:39:31.693Z,18.97
2023-01-12T17:42:17.821Z,18.33
2023-01-12T17:44:45.247Z,17.93
2023-01-12T17:47:12.800Z,18.70
2023-01-12T17:49:40.203Z,18.77
2023-01-12T17:52:07.871Z,18.20
2023-01-12T17:54:35.282Z,18.53
2023-01-12T17:57:02.596Z,18.97
2023-01-12T17:59:30.077Z,18.50
2023-01-12T18:01:58.667Z,17.87
2023-01-12T18:04:26.162Z,18.03
2023-01-12T18:06:53.520Z,18.77
2023-01-12T18:09:20.863Z,18.80
2023-01-12T18:11:48.253Z,18.67
2023-01-12T18:14:15.714Z,18.63
2023-01-12T18:16:43.068Z,18.50
2023-01-12T18:19:12.947Z,18.13
2023-01-12T18:21:40.312Z,19.00
2023-01-12T18:24:07.720Z,18.70
2023-01-12T18:26:35.969Z,21.10
2023-01-12T18:29:04.613Z,22.87
2023-01-12T18:31:32.663Z,19.30
2023-01-12T18:34:07.818Z,18.43
2023-01-12T18:36:36.830Z,17.40
2023-01-12T18:39:05.340Z,16.90
2023-01-12T18:41:51.394Z,16.90
2023-01-12T18:44:18.753Z,20.20
2023-01-12T18:47:04.804Z,17.53
2023-01-12T18:49:33.839Z,18.45
2023-01-12T18:52:20.257Z,17.80
2023-01-12T18:54:48.349Z,16.90
2023-01-12T18:57:19.192Z,16.80
2023-01-12T18:59:47.023Z,17.77
2023-01-12T19:02:14.957Z,16.03
2023-01-12T19:04:51.167Z,15.20
2023-01-12T19:07:30.669Z,15.50
2023-01-12T19:09:58.882Z,15.90
2023-01-12T19:12:26.881Z,14.53
2023-01-12T19:15:12.240Z,15.27
2023-01-12T19:17:41.886Z,14.10
2023-01-12T19:20:11.994Z,14.47
2023-01-12T19:22:58.328Z,13.60
2023-01-12T19:25:44.306Z,14.10
2023-01-12T19:28:34.906Z,14.50
2023-01-12T19:31:06.775Z,14.03
2023-01-12T19:33:34.316Z,17.17
2023-01-12T19:36:11.325Z,17.57
2023-01-12T19:38:38.839Z,13.23
2023-01-12T19:41:12.575Z,13.27
2023-01-12T19:43:45.569Z,13.10
2023-01-12T19:46:13.272Z,13.27
2023-01-12T19:48:41.045Z,14.10
2023-01-12T19:51:11.026Z,13.03
2023-01-12T19:53:39.689Z,13.20
2023-01-12T19:56:14.646Z,12.83
2023-01-12T19:58:42.344Z,12.50
2023-01-12T20:01:09.725Z,13.10
2023-01-12T20:03:39.814Z,12.63
2023-01-12T20:06:08.307Z,12.77
2023-01-12T20:08:35.939Z,12.23
2023-01-12T20:11:05.460Z,12.80
2023-01-12T20:13:33.388Z,12.63
2023-01-12T20:16:05.599Z,12.67
2023-01-12T20:18:33.004Z,12.67
2023-01-12T20:21:01.057Z,13.07
2023-01-12T20:23:28.451Z,12.27
2023-01-12T20:25:56.111Z,12.00
2023-01-12T20:28:23.433Z,11.80
2023-01-12T20:30:50.817Z,12.33
2023-01-12T20:33:18.208Z,11.80
2023-01-12T20:35:47.766Z,12.00
2023-01-12T20:38:15.747Z,10.83
2023-01-12T20:40:43.901Z,11.73
2023-01-12T20:43:11.461Z,11.63
2023-01-12T20:45:40.178Z,11.60
2023-01-12T20:48:07.507Z,11.30
2023-01-12T20:50:34.847Z,11.07
2023-01-12T20:53:02.306Z,10.30
2023-01-12T20:55:29.655Z,14.03
2023-01-12T20:57:57.014Z,11.07
2023-01-12T21:00:24.384Z,10.87
2023-01-12T21:02:51.708Z,10.83
2023-01-12T21:05:19.045Z,11.10
2023-01-12T21:07:47.496Z,10.70
2023-01-12T21:10:16.138Z,11.23
2023-01-12T21:12:43.498Z,11.17
2023-01-12T21:15:13.455Z,10.57
2023-01-12T21:17:41.193Z,10.83
2023-01-12T21:20:08.943Z,10.80
2023-01-12T21:22:36.243Z,10.37
2023-01-12T21:25:04.139Z,11.17
2023-01-12T21:27:31.019Z,11.13
2023-01-12T21:29:58.031Z,10.33
2023-01-12T21:32:27.106Z,10.63
2023-01-12T21:34:54.469Z,10.03
2023-01-12T21:37:22.573Z,10.50
2023-01-12T21:39:49.939Z,10.60
2023-01-12T21:42:35.804Z,10.13
2023-01-12T21:45:03.671Z,10.03
2023-01-12T21:47:31.049Z,10.23
2023-01-12T21:49:58.569Z,10.43
2023-01-12T21:52:31.388Z,10.17
2023-01-12T21:54:58.821Z,10.07
2023-01-12T21:57:26.543Z,10.13
